Relevés horaires Chievres (Belgique)


Relevés horaires à Chievres - Samedi 28 Oct. 2017
Heure UTC1 Température [°C] Vent [km/h] Hum. [%] Pres.4 [hPa] Visi. [Km] Nébu. [octa] Préc.5 [mm] Cond.
2m. Res. Ros. Dir.2 Vit. Moy. Raf.3
23:00 13.7 12.9 11.9 O 11.1 -- 18.5 89 1017(-2.0/3h) 20 -- -- --
22:00 13.9 13.1 12.0 O 11.1 -- 20.4 88 1017.6(-2.4/3h) 19 -- -- --
21:00 13.7 12.9 11.7 O 11.1 -- 20.4 88 1018.2(-2.5/3h) 17 -- -- --
20:00 13.3 12.4 11.4 O 11.1 -- 18.5 88 1019.1(-1.7/3h) 19 -- -- --
19:00 12.7 12 10.9 OSO 9.3 -- 16.7 89 1020.1(-0.9/3h) 19 -- -- --
18:00 12.3 11.5 9.7 OSO 9.3 -- 22.2 84 1020.8(-1.0/3h) 20 -- -- --
17:00 12.5 11.7 9.0 OSO 9.3 -- 16.7 79 1020.8(-1.5/3h) 20 -- -- --
16:00 12.6 11.6 8.9 OSO 11.1 -- 16.7 78 1021.1(-2.2/3h) 20 -- -- --
15:00 12.6 11.6 8.1 OSO 11.1 -- 22.2 74 1021.8(-2.7/3h) 20 -- -- --
14:00 12.6 11.3 7.5 O 13.0 -- 20.4 71 1022.3(-3.0/3h) 20 -- -- --
13:00 12.3 11.2 7.0 O 11.1 -- 16.7 70 1023.3(-2.6/3h) 20 -- -- --
12:00 11.6 10.7 7.1 O 9.3 -- 16.7 74 1024.7(-2.0/3h) 20 -- -- --
11:00 10.8 9.4 7.8 OSO 11.1 -- 16.7 82 1025.5(-1.3/3h) 19 -- -- --
10:00 9.8 8.2 7.5 OSO 11.1 -- 16.7 86 1026(-1.3/3h) 20 -- -- --
09:00 8.3 6.7 6.8 OSO 9.3 -- 14.8 90 1026.9(-1.5/3h) 19 -- -- --
08:00 7.5 5.8 6.2 OSO 9.3 -- 14.8 91 1027(-1.8/3h) 16 -- -- --
07:00 7.0 5.2 5.7 OSO 9.3 -- 13.0 91 1027.5(-1.5/3h) 16 -- -- --
06:00 6.3 5.3 5.4 OSO 5.6 -- 11.1 94 1028.4(-1.6/3h) 13 -- -- --
05:00 6.3 5.3 5.6 OSO 5.6 -- 7.4 95 1029(-1.8/3h) 11 -- -- --
04:00 5.0 5.0 4.6 SO 3.7 -- 7.4 97 1029.2(-2.6/3h) 7 -- -- --
03:00 5.4 4.3 5.1 SO 5.6 -- 7.4 98 1030(-2.2/3h) 8 -- -- --
02:00 6.1 6.1 5.5 OSO 3.7 -- 7.4 96 1030.9(-1.6/3h) 9 -- -- --
01:00 6.1 6.1 5.9 OSO 3.7 -- 5.6 99 1031.7(-1.0/3h) 9 -- -- --
00:00 5.0 5.0 5.0 SO 3.7 -- 7.4 100 1032.2(-1.1/3h) 4.4 -- -- Du brouillard ou du brouillard glacé (plus correctement designé sous le nom de brume) est observé et la visibilité n'est ni inférieure à 5/8 de mille ni supérieure à 6 milles

1 Coordinated Universal Time. Actuellement il est 01:00 locale et 23:00 UTC.

2 Le vent souffle depuis la direction indiquée vers la direction oposée.

3 Les rafales max. sont disponible 40 min après l'heure du relevé.

4 Pour les stations d'altitude (plus de 600m) le géopotentiel du niveau le plus proche de la pression obligatoire est indiqué.

5 Les stations disposant d'un diffuseur peuvent indiquer "trace". Cela signifie que des précipitations ont touchés le sol mais que la quantité est inférieure à 0.1 mm.

Récapitulatif de la journée
Température [°C] Vent [km/h] Ensoleillement4 [h] Precipitations totale5 [mm] Pression [Hpa]
Min1 Max.2 Moy.3 Max. Min Max.
4.8 12.6 0 22.2 0 h 0 min 0 1017.0 1032.2

1 Température minimale relevée entre 18:00 UTC la veille et 18:00 UTC le jour donné.

2 Température maximale relevée entre 06:00 UTC le jour donné et 06:00 UTC le lendemain.

3 Vent moyen de la journée basé sur les relevés horaires.

4 Ensoleillement en heures relevé entre 06:00 UTC la veille et 06:00 UTC le jour donné.

5 Précipitations totales tombées entre 06:00 UTC la jour donné et 06:00 UTC le lendemain.

Graphiques horaires